sensor_id;sensor_type;location;lat;lon;timestamp;pressure;altitude;pressure_sealevel;temperature;humidity
79617;BME280;69097;52.132;5.422;2023-06-14T00:01:50;101620.13;;;19.41;47.70
79617;BME280;69097;52.132;5.422;2023-06-14T00:04:17;101625.00;;;19.40;46.63
79617;BME280;69097;52.132;5.422;2023-06-14T00:06:44;101620.91;;;19.41;47.25
79617;BME280;69097;52.132;5.422;2023-06-14T00:09:16;101617.28;;;19.41;47.96
79617;BME280;69097;52.132;5.422;2023-06-14T00:11:46;101620.59;;;19.39;47.32
79617;BME280;69097;52.132;5.422;2023-06-14T00:14:12;101621.56;;;19.36;47.82
79617;BME280;69097;52.132;5.422;2023-06-14T00:16:39;101626.59;;;19.32;46.98
79617;BME280;69097;52.132;5.422;2023-06-14T00:19:09;101615.72;;;19.31;48.06
79617;BME280;69097;52.132;5.422;2023-06-14T00:21:37;101617.75;;;19.30;47.77
79617;BME280;69097;52.132;5.422;2023-06-14T00:24:05;101624.72;;;19.29;47.40
79617;BME280;69097;52.132;5.422;2023-06-14T00:26:31;101630.25;;;19.33;47.94
79617;BME280;69097;52.132;5.422;2023-06-14T00:28:58;101631.81;;;19.34;47.47
79617;BME280;69097;52.132;5.422;2023-06-14T00:31:24;101628.00;;;19.28;48.07
79617;BME280;69097;52.132;5.422;2023-06-14T00:33:51;101635.09;;;19.23;48.39
79617;BME280;69097;52.132;5.422;2023-06-14T00:36:17;101630.84;;;19.19;47.90
79617;BME280;69097;52.132;5.422;2023-06-14T00:38:43;101625.31;;;19.15;48.15
79617;BME280;69097;52.132;5.422;2023-06-14T00:41:10;101627.84;;;19.13;48.18
79617;BME280;69097;52.132;5.422;2023-06-14T00:43:36;101618.66;;;19.18;46.62
79617;BME280;69097;52.132;5.422;2023-06-14T00:46:03;101624.34;;;19.18;48.04
79617;BME280;69097;52.132;5.422;2023-06-14T00:48:30;101624.50;;;19.15;47.59
79617;BME280;69097;52.132;5.422;2023-06-14T00:50:58;101629.91;;;19.13;46.52
79617;BME280;69097;52.132;5.422;2023-06-14T00:53:27;101623.75;;;19.14;47.45
79617;BME280;69097;52.132;5.422;2023-06-14T00:55:53;101623.09;;;19.10;47.26
79617;BME280;69097;52.132;5.422;2023-06-14T00:58:21;101621.22;;;19.07;48.19
79617;BME280;69097;52.132;5.422;2023-06-14T01:00:48;101629.41;;;19.05;47.79
79617;BME280;69097;52.132;5.422;2023-06-14T01:03:15;101624.34;;;19.00;47.49
79617;BME280;69097;52.132;5.422;2023-06-14T01:06:05;101628.47;;;18.99;47.71
79617;BME280;69097;52.132;5.422;2023-06-14T01:08:56;101626.88;;;18.98;48.06
79617;BME280;69097;52.132;5.422;2023-06-14T01:11:32;101633.50;;;18.95;47.61
79617;BME280;69097;52.132;5.422;2023-06-14T01:14:01;101627.50;;;18.93;47.66
79617;BME280;69097;52.132;5.422;2023-06-14T01:16:29;101627.50;;;18.84;48.44
79617;BME280;69097;52.132;5.422;2023-06-14T01:18:56;101626.53;;;18.78;48.32
79617;BME280;69097;52.132;5.422;2023-06-14T01:21:25;101625.91;;;18.74;48.58
79617;BME280;69097;52.132;5.422;2023-06-14T01:23:52;101620.69;;;18.73;48.75
79617;BME280;69097;52.132;5.422;2023-06-14T01:26:22;101622.41;;;18.70;48.88
79617;BME280;69097;52.132;5.422;2023-06-14T01:28:50;101624.94;;;18.68;48.87
79617;BME280;69097;52.132;5.422;2023-06-14T01:31:20;101629.06;;;18.67;48.43
79617;BME280;69097;52.132;5.422;2023-06-14T01:33:51;101625.22;;;18.61;48.22
79617;BME280;69097;52.132;5.422;2023-06-14T01:36:22;101622.09;;;18.59;48.29
79617;BME280;69097;52.132;5.422;2023-06-14T01:38:50;101629.63;;;18.53;48.83
79617;BME280;69097;52.132;5.422;2023-06-14T01:41:18;101624.91;;;18.50;48.34
79617;BME280;69097;52.132;5.422;2023-06-14T01:43:47;101635.75;;;18.42;48.47
79617;BME280;69097;52.132;5.422;2023-06-14T01:46:15;101632.13;;;18.42;48.68
79617;BME280;69097;52.132;5.422;2023-06-14T01:48:42;101633.72;;;18.43;48.13
79617;BME280;69097;52.132;5.422;2023-06-14T01:51:08;101631.81;;;18.40;48.64
79617;BME280;69097;52.132;5.422;2023-06-14T01:53:35;101635.09;;;18.38;48.43
79617;BME280;69097;52.132;5.422;2023-06-14T01:56:02;101631.13;;;18.36;48.32
79617;BME280;69097;52.132;5.422;2023-06-14T01:58:29;101632.03;;;18.24;49.87
79617;BME280;69097;52.132;5.422;2023-06-14T02:00:56;101631.53;;;18.16;49.67
79617;BME280;69097;52.132;5.422;2023-06-14T02:03:23;101631.81;;;18.09;49.39
79617;BME280;69097;52.132;5.422;2023-06-14T02:05:50;101644.91;;;18.07;53.66
79617;BME280;69097;52.132;5.422;2023-06-14T02:08:17;101633.03;;;17.99;52.47
79617;BME280;69097;52.132;5.422;2023-06-14T02:10:43;101632.06;;;17.93;52.97
79617;BME280;69097;52.132;5.422;2023-06-14T02:13:10;101627.75;;;17.89;53.26
79617;BME280;69097;52.132;5.422;2023-06-14T02:15:36;101632.31;;;17.86;53.03
79617;BME280;69097;52.132;5.422;2023-06-14T02:18:03;101640.63;;;17.81;52.80
79617;BME280;69097;52.132;5.422;2023-06-14T02:20:30;101628.94;;;17.79;51.28
79617;BME280;69097;52.132;5.422;2023-06-14T02:22:57;101629.69;;;17.70;53.04
79617;BME280;69097;52.132;5.422;2023-06-14T02:25:23;101626.69;;;17.65;53.27
79617;BME280;69097;52.132;5.422;2023-06-14T02:27:50;101624.56;;;17.56;54.16
79617;BME280;69097;52.132;5.422;2023-06-14T02:30:16;101627.53;;;17.53;53.74
79617;BME280;69097;52.132;5.422;2023-06-14T02:32:43;101633.22;;;17.53;52.85
79617;BME280;69097;52.132;5.422;2023-06-14T02:35:13;101633.09;;;17.44;53.33
79617;BME280;69097;52.132;5.422;2023-06-14T02:37:40;101639.84;;;17.37;53.76
79617;BME280;69097;52.132;5.422;2023-06-14T02:40:07;101641.88;;;17.37;52.64
79617;BME280;69097;52.132;5.422;2023-06-14T02:42:35;101631.13;;;17.32;53.13
79617;BME280;69097;52.132;5.422;2023-06-14T02:45:01;101639.41;;;17.26;53.30
79617;BME280;69097;52.132;5.422;2023-06-14T02:47:30;101634.31;;;17.21;54.52
79617;BME280;69097;52.132;5.422;2023-06-14T02:49:56;101640.16;;;17.17;54.16
79617;BME280;69097;52.132;5.422;2023-06-14T02:52:23;101638.69;;;17.13;54.81
79617;BME280;69097;52.132;5.422;2023-06-14T02:54:51;101644.00;;;17.11;54.71
79617;BME280;69097;52.132;5.422;2023-06-14T02:57:18;101649.94;;;17.04;55.11
79617;BME280;69097;52.132;5.422;2023-06-14T02:59:44;101650.06;;;17.00;55.10
79617;BME280;69097;52.132;5.422;2023-06-14T03:02:11;101652.56;;;16.98;54.86
79617;BME280;69097;52.132;5.422;2023-06-14T03:04:37;101657.09;;;16.96;55.48
79617;BME280;69097;52.132;5.422;2023-06-14T03:07:04;101659.63;;;16.94;54.34
79617;BME280;69097;52.132;5.422;2023-06-14T03:09:36;101666.00;;;16.85;56.55
79617;BME280;69097;52.132;5.422;2023-06-14T03:12:04;101664.63;;;16.77;57.08
79617;BME280;69097;52.132;5.422;2023-06-14T03:14:32;101668.84;;;16.73;58.15
79617;BME280;69097;52.132;5.422;2023-06-14T03:16:59;101664.53;;;16.68;57.74
79617;BME280;69097;52.132;5.422;2023-06-14T03:19:26;101675.19;;;16.64;57.18
79617;BME280;69097;52.132;5.422;2023-06-14T03:21:53;101675.41;;;16.57;56.99
79617;BME280;69097;52.132;5.422;2023-06-14T03:24:24;101683.91;;;16.57;57.41
79617;BME280;69097;52.132;5.422;2023-06-14T03:26:51;101675.88;;;16.56;57.50
79617;BME280;69097;52.132;5.422;2023-06-14T03:29:17;101676.91;;;16.49;57.55
79617;BME280;69097;52.132;5.422;2023-06-14T03:32:00;101672.94;;;16.47;57.62
79617;BME280;69097;52.132;5.422;2023-06-14T03:34:27;101675.88;;;16.43;57.83
79617;BME280;69097;52.132;5.422;2023-06-14T03:36:54;101679.59;;;16.40;57.69
79617;BME280;69097;52.132;5.422;2023-06-14T03:39:21;101682.09;;;16.38;57.42
79617;BME280;69097;52.132;5.422;2023-06-14T03:41:47;101680.50;;;16.37;57.59
79617;BME280;69097;52.132;5.422;2023-06-14T03:44:16;101678.91;;;16.36;57.53
79617;BME280;69097;52.132;5.422;2023-06-14T03:46:47;101686.25;;;16.34;57.50
79617;BME280;69097;52.132;5.422;2023-06-14T03:49:14;101681.50;;;16.31;58.06
79617;BME280;69097;52.132;5.422;2023-06-14T03:51:42;101686.38;;;16.30;57.34
79617;BME280;69097;52.132;5.422;2023-06-14T03:54:09;101688.75;;;16.32;57.57
79617;BME280;69097;52.132;5.422;2023-06-14T03:56:56;101695.56;;;16.34;57.15
79617;BME280;69097;52.132;5.422;2023-06-14T03:59:23;101690.34;;;16.33;56.83
79617;BME280;69097;52.132;5.422;2023-06-14T04:01:50;101694.41;;;16.32;57.53
79617;BME280;69097;52.132;5.422;2023-06-14T04:04:16;101699.31;;;16.31;57.78
79617;BME280;69097;52.132;5.422;2023-06-14T04:06:44;101701.00;;;16.29;58.55
79617;BME280;69097;52.132;5.422;2023-06-14T04:09:14;101708.25;;;16.30;57.98
79617;BME280;69097;52.132;5.422;2023-06-14T04:11:40;101707.00;;;16.31;58.03
79617;BME280;69097;52.132;5.422;2023-06-14T04:14:07;101716.28;;;16.31;58.39
79617;BME280;69097;52.132;5.422;2023-06-14T04:16:33;101711.41;;;16.32;57.86
79617;BME280;69097;52.132;5.422;2023-06-14T04:19:00;101716.28;;;16.31;58.12
79617;BME280;69097;52.132;5.422;2023-06-14T04:21:27;101715.50;;;16.31;58.25
79617;BME280;69097;52.132;5.422;2023-06-14T04:23:55;101718.78;;;16.29;58.74
79617;BME280;69097;52.132;5.422;2023-06-14T04:26:22;101718.78;;;16.29;58.72
79617;BME280;69097;52.132;5.422;2023-06-14T04:28:52;101723.63;;;16.29;58.78
79617;BME280;69097;52.132;5.422;2023-06-14T04:31:19;101721.97;;;16.31;58.70
79617;BME280;69097;52.132;5.422;2023-06-14T04:33:47;101721.97;;;16.31;58.74
79617;BME280;69097;52.132;5.422;2023-06-14T04:36:17;101720.25;;;16.34;59.00
79617;BME280;69097;52.132;5.422;2023-06-14T04:38:44;101726.38;;;16.32;58.16
79617;BME280;69097;52.132;5.422;2023-06-14T04:41:12;101723.44;;;16.36;58.26
79617;BME280;69097;52.132;5.422;2023-06-14T04:43:39;101725.81;;;16.37;58.36
79617;BME280;69097;52.132;5.422;2023-06-14T04:46:06;101725.69;;;16.41;57.63
79617;BME280;69097;52.132;5.422;2023-06-14T04:48:40;101727.09;;;16.49;56.58
79617;BME280;69097;52.132;5.422;2023-06-14T04:51:09;101733.44;;;16.53;57.34
79617;BME280;69097;52.132;5.422;2023-06-14T04:53:36;101733.44;;;16.53;58.59
79617;BME280;69097;52.132;5.422;2023-06-14T04:56:03;101734.25;;;16.53;58.03
79617;BME280;69097;52.132;5.422;2023-06-14T04:58:30;101736.28;;;16.53;57.30
79617;BME280;69097;52.132;5.422;2023-06-14T05:00:56;101739.91;;;16.53;58.70
79617;BME280;69097;52.132;5.422;2023-06-14T05:03:25;101742.28;;;16.55;58.69
79617;BME280;69097;52.132;5.422;2023-06-14T05:05:53;101746.69;;;16.56;57.41
79617;BME280;69097;52.132;5.422;2023-06-14T05:08:21;101740.13;;;16.59;56.82
79617;BME280;69097;52.132;5.422;2023-06-14T05:10:50;101738.31;;;16.65;57.70
79617;BME280;69097;52.132;5.422;2023-06-14T05:13:16;101735.84;;;16.67;57.58
79617;BME280;69097;52.132;5.422;2023-06-14T05:15:43;101744.66;;;16.69;58.89
79617;BME280;69097;52.132;5.422;2023-06-14T05:18:10;101745.78;;;16.71;58.60
79617;BME280;69097;52.132;5.422;2023-06-14T05:20:37;101742.03;;;16.74;57.69
79617;BME280;69097;52.132;5.422;2023-06-14T05:23:03;101747.25;;;16.76;57.22
79617;BME280;69097;52.132;5.422;2023-06-14T05:25:30;101745.91;;;16.80;57.09
79617;BME280;69097;52.132;5.422;2023-06-14T05:27:56;101746.91;;;16.86;57.31
79617;BME280;69097;52.132;5.422;2023-06-14T05:30:23;101747.16;;;16.92;56.61
79617;BME280;69097;52.132;5.422;2023-06-14T05:32:49;101747.34;;;16.97;57.63
79617;BME280;69097;52.132;5.422;2023-06-14T05:35:16;101747.91;;;17.05;56.87
79617;BME280;69097;52.132;5.422;2023-06-14T05:37:43;101742.94;;;17.09;57.40
79617;BME280;69097;52.132;5.422;2023-06-14T05:40:10;101744.38;;;17.13;56.28
79617;BME280;69097;52.132;5.422;2023-06-14T05:42:36;101751.41;;;17.21;56.20
79617;BME280;69097;52.132;5.422;2023-06-14T05:45:03;101760.59;;;17.26;55.60
79617;BME280;69097;52.132;5.422;2023-06-14T05:47:30;101761.25;;;17.30;54.91
79617;BME280;69097;52.132;5.422;2023-06-14T05:49:57;101758.28;;;17.33;55.38
79617;BME280;69097;52.132;5.422;2023-06-14T05:52:24;101758.16;;;17.37;55.24
79617;BME280;69097;52.132;5.422;2023-06-14T05:54:51;101758.84;;;17.41;55.07
79617;BME280;69097;52.132;5.422;2023-06-14T05:57:18;101758.28;;;17.46;54.50
79617;BME280;69097;52.132;5.422;2023-06-14T05:59:44;101770.97;;;17.54;53.75
79617;BME280;69097;52.132;5.422;2023-06-14T06:02:11;101769.16;;;17.60;53.75
79617;BME280;69097;52.132;5.422;2023-06-14T06:04:37;101772.06;;;17.69;54.23
79617;BME280;69097;52.132;5.422;2023-06-14T06:07:04;101776.34;;;17.73;54.53
79617;BME280;69097;52.132;5.422;2023-06-14T06:09:31;101774.50;;;17.79;54.25
79617;BME280;69097;52.132;5.422;2023-06-14T06:11:57;101774.25;;;17.86;52.85
79617;BME280;69097;52.132;5.422;2023-06-14T06:14:24;101773.53;;;17.95;53.00
79617;BME280;69097;52.132;5.422;2023-06-14T06:16:50;101768.50;;;17.99;51.47
79617;BME280;69097;52.132;5.422;2023-06-14T06:19:19;101777.44;;;18.10;50.42
79617;BME280;69097;52.132;5.422;2023-06-14T06:21:45;101783.16;;;18.19;51.62
79617;BME280;69097;52.132;5.422;2023-06-14T06:24:12;101777.34;;;18.22;51.37
79617;BME280;69097;52.132;5.422;2023-06-14T06:26:38;101765.25;;;18.31;51.19
79617;BME280;69097;52.132;5.422;2023-06-14T06:29:06;101780.34;;;18.41;50.33
79617;BME280;69097;52.132;5.422;2023-06-14T06:31:32;101779.16;;;18.51;49.62
79617;BME280;69097;52.132;5.422;2023-06-14T06:33:59;101774.28;;;18.60;50.48
79617;BME280;69097;52.132;5.422;2023-06-14T06:36:25;101781.94;;;18.72;49.42
79617;BME280;69097;52.132;5.422;2023-06-14T06:38:52;101785.94;;;18.84;50.24
79617;BME280;69097;52.132;5.422;2023-06-14T06:41:18;101790.25;;;18.97;49.99
79617;BME280;69097;52.132;5.422;2023-06-14T06:43:45;101788.88;;;19.11;49.53
79617;BME280;69097;52.132;5.422;2023-06-14T06:46:12;101787.97;;;19.23;49.27
79617;BME280;69097;52.132;5.422;2023-06-14T06:48:39;101790.69;;;19.35;48.28
79617;BME280;69097;52.132;5.422;2023-06-14T06:51:06;101792.94;;;19.49;48.50
79617;BME280;69097;52.132;5.422;2023-06-14T06:53:32;101794.22;;;19.67;48.32
79617;BME280;69097;52.132;5.422;2023-06-14T06:56:09;101800.88;;;19.82;48.08
79617;BME280;69097;52.132;5.422;2023-06-14T06:58:36;101803.09;;;19.96;47.27
79617;BME280;69097;52.132;5.422;2023-06-14T07:01:02;101804.22;;;20.07;47.14
79617;BME280;69097;52.132;5.422;2023-06-14T07:03:29;101799.94;;;20.21;46.96
79617;BME280;69097;52.132;5.422;2023-06-14T07:05:56;101805.94;;;20.32;46.97
79617;BME280;69097;52.132;5.422;2023-06-14T07:08:23;101794.84;;;20.43;46.24
79617;BME280;69097;52.132;5.422;2023-06-14T07:10:49;101811.59;;;20.59;46.01
79617;BME280;69097;52.132;5.422;2023-06-14T07:13:15;101807.75;;;20.71;46.42
79617;BME280;69097;52.132;5.422;2023-06-14T07:15:42;101809.13;;;20.85;44.54
79617;BME280;69097;52.132;5.422;2023-06-14T07:18:09;101809.06;;;20.94;44.05
79617;BME280;69097;52.132;5.422;2023-06-14T07:20:36;101810.78;;;21.09;45.18
79617;BME280;69097;52.132;5.422;2023-06-14T07:23:04;101815.50;;;21.21;44.41
79617;BME280;69097;52.132;5.422;2023-06-14T07:25:31;101813.97;;;21.35;42.48
79617;BME280;69097;52.132;5.422;2023-06-14T07:27:58;101818.84;;;21.43;43.57
79617;BME280;69097;52.132;5.422;2023-06-14T07:30:24;101815.28;;;21.57;42.82
79617;BME280;69097;52.132;5.422;2023-06-14T07:32:53;101823.09;;;21.71;42.79
79617;BME280;69097;52.132;5.422;2023-06-14T07:35:20;101827.00;;;21.83;41.78
79617;BME280;69097;52.132;5.422;2023-06-14T07:37:46;101827.44;;;21.90;42.04
79617;BME280;69097;52.132;5.422;2023-06-14T07:40:13;101832.09;;;22.03;42.12
79617;BME280;69097;52.132;5.422;2023-06-14T07:42:39;101829.16;;;22.12;40.43
79617;BME280;69097;52.132;5.422;2023-06-14T07:45:06;101834.13;;;22.26;40.98
79617;BME280;69097;52.132;5.422;2023-06-14T07:47:33;101829.38;;;22.37;42.07
79617;BME280;69097;52.132;5.422;2023-06-14T07:50:00;101826.94;;;22.45;40.73
79617;BME280;69097;52.132;5.422;2023-06-14T07:52:26;101826.88;;;22.54;39.43
79617;BME280;69097;52.132;5.422;2023-06-14T07:54:53;101831.91;;;22.59;39.60
79617;BME280;69097;52.132;5.422;2023-06-14T07:57:19;101835.78;;;22.70;39.43
79617;BME280;69097;52.132;5.422;2023-06-14T07:59:46;101842.38;;;22.76;38.94
79617;BME280;69097;52.132;5.422;2023-06-14T08:02:12;101837.31;;;22.86;38.92
79617;BME280;69097;52.132;5.422;2023-06-14T08:04:39;101844.31;;;22.99;38.83
79617;BME280;69097;52.132;5.422;2023-06-14T08:07:06;101846.06;;;23.11;39.05
79617;BME280;69097;52.132;5.422;2023-06-14T08:09:35;101841.31;;;23.23;36.61
79617;BME280;69097;52.132;5.422;2023-06-14T08:12:05;101844.59;;;23.31;37.19
79617;BME280;69097;52.132;5.422;2023-06-14T08:14:34;101839.22;;;23.38;37.68
79617;BME280;69097;52.132;5.422;2023-06-14T08:17:00;101840.31;;;23.41;37.31
79617;BME280;69097;52.132;5.422;2023-06-14T08:19:27;101835.81;;;23.54;36.88
79617;BME280;69097;52.132;5.422;2023-06-14T08:21:54;101829.16;;;23.63;36.22
79617;BME280;69097;52.132;5.422;2023-06-14T08:24:22;101835.03;;;23.74;36.71
79617;BME280;69097;52.132;5.422;2023-06-14T08:26:53;101834.03;;;23.97;36.54
79617;BME280;69097;52.132;5.422;2023-06-14T08:29:20;101836.28;;;24.07;35.40
79617;BME280;69097;52.132;5.422;2023-06-14T08:31:47;101835.84;;;24.14;35.32
79617;BME280;69097;52.132;5.422;2023-06-14T08:34:14;101835.09;;;24.19;34.50
79617;BME280;69097;52.132;5.422;2023-06-14T08:36:40;101841.72;;;24.25;34.57
79617;BME280;69097;52.132;5.422;2023-06-14T08:39:07;101841.53;;;24.34;33.68
79617;BME280;69097;52.132;5.422;2023-06-14T08:41:35;101837.03;;;24.54;34.90
79617;BME280;69097;52.132;5.422;2023-06-14T08:44:02;101836.94;;;24.68;34.94
79617;BME280;69097;52.132;5.422;2023-06-14T08:46:30;101836.16;;;24.68;33.63
79617;BME280;69097;52.132;5.422;2023-06-14T08:49:01;101829.22;;;24.80;33.37
79617;BME280;69097;52.132;5.422;2023-06-14T08:51:30;101838.81;;;25.02;32.61
79617;BME280;69097;52.132;5.422;2023-06-14T08:54:00;101835.88;;;24.97;31.99
79617;BME280;69097;52.132;5.422;2023-06-14T08:56:28;101837.31;;;25.12;32.73
79617;BME280;69097;52.132;5.422;2023-06-14T08:58:56;101835.59;;;25.26;32.12
79617;BME280;69097;52.132;5.422;2023-06-14T09:01:23;101831.25;;;25.36;31.42
79617;BME280;69097;52.132;5.422;2023-06-14T09:03:50;101837.72;;;25.31;32.28
79617;BME280;69097;52.132;5.422;2023-06-14T09:06:17;101822.16;;;25.43;32.55
79617;BME280;69097;52.132;5.422;2023-06-14T09:08:46;101833.25;;;25.67;32.52
79617;BME280;69097;52.132;5.422;2023-06-14T09:11:17;101830.19;;;25.81;30.88
79617;BME280;69097;52.132;5.422;2023-06-14T09:13:46;101840.66;;;25.84;30.59
79617;BME280;69097;52.132;5.422;2023-06-14T09:16:13;101835.44;;;25.88;30.29
79617;BME280;69097;52.132;5.422;2023-06-14T09:18:42;101836.53;;;25.96;30.96
79617;BME280;69097;52.132;5.422;2023-06-14T09:21:11;101840.47;;;25.99;29.80
79617;BME280;69097;52.132;5.422;2023-06-14T09:23:39;101836.09;;;26.09;31.84
79617;BME280;69097;52.132;5.422;2023-06-14T09:26:15;101837.19;;;26.22;31.21
79617;BME280;69097;52.132;5.422;2023-06-14T09:28:46;101839.06;;;26.42;30.79
79617;BME280;69097;52.132;5.422;2023-06-14T09:31:14;101845.91;;;26.61;31.46
79617;BME280;69097;52.132;5.422;2023-06-14T09:33:46;101852.75;;;26.69;29.03
79617;BME280;69097;52.132;5.422;2023-06-14T09:36:18;101857.94;;;26.59;27.79
79617;BME280;69097;52.132;5.422;2023-06-14T09:38:55;101851.13;;;26.57;28.37
79617;BME280;69097;52.132;5.422;2023-06-14T09:41:32;101855.84;;;26.54;28.33
79617;BME280;69097;52.132;5.422;2023-06-14T09:44:03;101848.25;;;26.62;28.59
79617;BME280;69097;52.132;5.422;2023-06-14T09:46:36;101840.69;;;26.71;28.31
79617;BME280;69097;52.132;5.422;2023-06-14T09:49:04;101839.66;;;26.79;29.17
79617;BME280;69097;52.132;5.422;2023-06-14T09:51:31;101843.59;;;26.82;29.77
79617;BME280;69097;52.132;5.422;2023-06-14T09:54:02;101837.81;;;26.93;28.13
79617;BME280;69097;52.132;5.422;2023-06-14T09:56:44;101841.22;;;27.02;29.27
79617;BME280;69097;52.132;5.422;2023-06-14T09:59:12;101842.78;;;27.20;29.08
79617;BME280;69097;52.132;5.422;2023-06-14T10:01:42;101850.91;;;27.27;27.85
79617;BME280;69097;52.132;5.422;2023-06-14T10:04:10;101843.59;;;27.15;27.10
79617;BME280;69097;52.132;5.422;2023-06-14T10:06:40;101837.03;;;27.03;28.40
79617;BME280;69097;52.132;5.422;2023-06-14T10:09:08;101838.59;;;27.10;28.56
79617;BME280;69097;52.132;5.422;2023-06-14T10:11:36;101829.44;;;27.17;28.50
79617;BME280;69097;52.132;5.422;2023-06-14T10:14:05;101836.53;;;27.32;28.77
79617;BME280;69097;52.132;5.422;2023-06-14T10:16:32;101843.06;;;27.44;27.95
79617;BME280;69097;52.132;5.422;2023-06-14T10:19:17;101840.66;;;27.53;26.12
79617;BME280;69097;52.132;5.422;2023-06-14T10:21:57;101841.44;;;27.54;26.21
79617;BME280;69097;52.132;5.422;2023-06-14T10:24:33;101843.06;;;27.27;26.36
79617;BME280;69097;52.132;5.422;2023-06-14T10:27:00;101835.16;;;27.28;27.26
79617;BME280;69097;52.132;5.422;2023-06-14T10:29:28;101836.22;;;27.41;28.48
79617;BME280;69097;52.132;5.422;2023-06-14T10:32:00;101828.34;;;27.53;27.79
79617;BME280;69097;52.132;5.422;2023-06-14T10:34:28;101826.72;;;27.68;28.39
79617;BME280;69097;52.132;5.422;2023-06-14T10:37:06;101829.84;;;27.76;27.38
79617;BME280;69097;52.132;5.422;2023-06-14T10:39:39;101829.78;;;27.98;28.03
79617;BME280;69097;52.132;5.422;2023-06-14T10:42:07;101819.75;;;28.10;27.20
79617;BME280;69097;52.132;5.422;2023-06-14T10:44:39;101816.84;;;28.16;27.59
79617;BME280;69097;52.132;5.422;2023-06-14T10:47:09;101819.97;;;28.18;27.09
79617;BME280;69097;52.132;5.422;2023-06-14T10:49:38;101830.72;;;28.17;26.32
79617;BME280;69097;52.132;5.422;2023-06-14T10:52:13;101818.25;;;27.98;27.10
79617;BME280;69097;52.132;5.422;2023-06-14T10:57:25;101821.66;;;27.97;26.55
79617;BME280;69097;52.132;5.422;2023-06-14T10:59:51;101832.91;;;28.00;27.51
79617;BME280;69097;52.132;5.422;2023-06-14T11:05:26;101818.25;;;27.87;27.44
79617;BME280;69097;52.132;5.422;2023-06-14T11:08:18;101813.53;;;27.95;27.09
79617;BME280;69097;52.132;5.422;2023-06-14T11:10:50;101817.78;;;27.83;27.43
79617;BME280;69097;52.132;5.422;2023-06-14T11:13:16;101817.78;;;27.83;27.89
79617;BME280;69097;52.132;5.422;2023-06-14T11:16:02;101829.56;;;27.91;27.93
79617;BME280;69097;52.132;5.422;2023-06-14T11:18:38;101825.06;;;27.95;27.75
79617;BME280;69097;52.132;5.422;2023-06-14T11:21:05;101819.56;;;27.92;28.48
79617;BME280;69097;52.132;5.422;2023-06-14T11:23:32;101816.38;;;28.01;28.78
79617;BME280;69097;52.132;5.422;2023-06-14T11:25:58;101810.50;;;28.23;28.21
79617;BME280;69097;52.132;5.422;2023-06-14T11:28:35;101819.69;;;28.21;26.25
79617;BME280;69097;52.132;5.422;2023-06-14T11:31:03;101817.66;;;28.11;27.20
79617;BME280;69097;52.132;5.422;2023-06-14T11:33:30;101822.88;;;28.12;25.38
79617;BME280;69097;52.132;5.422;2023-06-14T11:35:57;101811.09;;;28.10;26.85
79617;BME280;69097;52.132;5.422;2023-06-14T11:38:25;101813.38;;;28.23;27.86
79617;BME280;69097;52.132;5.422;2023-06-14T11:40:58;101808.28;;;28.40;26.92
79617;BME280;69097;52.132;5.422;2023-06-14T11:43:25;101808.31;;;28.34;27.69
79617;BME280;69097;52.132;5.422;2023-06-14T11:45:52;101813.28;;;28.39;27.05
79617;BME280;69097;52.132;5.422;2023-06-14T11:48:41;101810.34;;;28.04;27.19
79617;BME280;69097;52.132;5.422;2023-06-14T11:51:08;101799.06;;;28.01;28.04
79617;BME280;69097;52.132;5.422;2023-06-14T11:53:34;101805.31;;;28.10;28.18
79617;BME280;69097;52.132;5.422;2023-06-14T11:56:01;101812.06;;;28.24;26.61
79617;BME280;69097;52.132;5.422;2023-06-14T11:58:29;101815.16;;;28.31;28.04
79617;BME280;69097;52.132;5.422;2023-06-14T12:00:55;101813.97;;;28.10;25.73
79617;BME280;69097;52.132;5.422;2023-06-14T12:03:22;101801.59;;;28.21;27.05
79617;BME280;69097;52.132;5.422;2023-06-14T12:05:50;101813.41;;;28.17;27.21
79617;BME280;69097;52.132;5.422;2023-06-14T12:08:17;101808.19;;;28.16;26.62
79617;BME280;69097;52.132;5.422;2023-06-14T12:10:44;101814.72;;;28.22;27.01
79617;BME280;69097;52.132;5.422;2023-06-14T12:13:11;101806.53;;;28.26;26.74
79617;BME280;69097;52.132;5.422;2023-06-14T12:15:37;101807.50;;;28.39;26.45
79617;BME280;69097;52.132;5.422;2023-06-14T12:18:06;101814.25;;;28.47;26.90
79617;BME280;69097;52.132;5.422;2023-06-14T12:20:34;101801.94;;;28.47;27.55
79617;BME280;69097;52.132;5.422;2023-06-14T12:23:03;101812.47;;;28.50;27.03
79617;BME280;69097;52.132;5.422;2023-06-14T12:25:32;101802.94;;;28.60;27.14
79617;BME280;69097;52.132;5.422;2023-06-14T12:28:04;101814.53;;;28.49;26.85
79617;BME280;69097;52.132;5.422;2023-06-14T12:30:31;101813.63;;;28.30;27.67
79617;BME280;69097;52.132;5.422;2023-06-14T12:32:57;101807.63;;;28.17;27.37
79617;BME280;69097;52.132;5.422;2023-06-14T12:35:24;101809.16;;;28.24;28.80
79617;BME280;69097;52.132;5.422;2023-06-14T12:37:51;101816.50;;;28.30;27.12
79617;BME280;69097;52.132;5.422;2023-06-14T12:40:21;101814.09;;;28.34;27.13
79617;BME280;69097;52.132;5.422;2023-06-14T12:42:47;101806.78;;;28.33;27.68
79617;BME280;69097;52.132;5.422;2023-06-14T12:45:14;101805.53;;;28.23;26.84
79617;BME280;69097;52.132;5.422;2023-06-14T12:47:41;101813.84;;;28.32;25.84
79617;BME280;69097;52.132;5.422;2023-06-14T12:50:08;101810.91;;;28.43;27.34
79617;BME280;69097;52.132;5.422;2023-06-14T12:52:35;101800.38;;;28.51;26.97
79617;BME280;69097;52.132;5.422;2023-06-14T12:55:05;101809.28;;;28.53;26.96
79617;BME280;69097;52.132;5.422;2023-06-14T12:57:32;101808.84;;;28.38;25.53
79617;BME280;69097;52.132;5.422;2023-06-14T12:59:59;101816.19;;;28.34;27.03
79617;BME280;69097;52.132;5.422;2023-06-14T13:02:26;101817.53;;;28.27;25.77